createdAt,value
2019-05-20T00:00:04.614Z,9
2019-05-20T00:01:02.415Z,9
2019-05-20T00:02:02.547Z,9
2019-05-20T00:03:01.706Z,9
2019-05-20T00:04:01.907Z,5
2019-05-20T00:05:02.170Z,10
2019-05-20T00:06:02.738Z,10
2019-05-20T00:07:01.632Z,10
2019-05-20T00:08:01.869Z,10
2019-05-20T00:09:02.544Z,10
2019-05-20T00:10:02.455Z,8
2019-05-20T00:11:02.645Z,7
2019-05-20T00:12:01.942Z,7
2019-05-20T00:13:02.111Z,7
2019-05-20T00:14:02.278Z,7
2019-05-20T00:15:02.539Z,7
2019-05-20T00:16:01.756Z,8
2019-05-20T00:17:02.019Z,9
2019-05-20T00:18:02.240Z,9
2019-05-20T00:19:02.490Z,9
2019-05-20T00:20:01.830Z,9
2019-05-20T00:21:02.037Z,9
2019-05-20T00:22:02.116Z,9
2019-05-20T00:23:02.257Z,10
2019-05-20T00:24:02.604Z,10
2019-05-20T00:25:01.796Z,10
2019-05-20T00:26:02.001Z,10
2019-05-20T00:27:02.255Z,10
2019-05-20T00:28:02.455Z,5
2019-05-20T00:29:01.976Z,8
2019-05-20T00:30:01.890Z,8
2019-05-20T00:31:02.187Z,8
2019-05-20T00:32:02.358Z,8
2019-05-20T00:33:02.581Z,8
2019-05-20T00:34:02.062Z,6
2019-05-20T00:35:02.705Z,9
2019-05-20T00:36:02.480Z,9
2019-05-20T00:37:02.663Z,9
2019-05-20T00:38:01.829Z,9
2019-05-20T00:39:02.125Z,9
2019-05-20T00:40:02.305Z,6
2019-05-20T00:41:02.597Z,7
2019-05-20T00:42:01.813Z,7
2019-05-20T00:43:02.084Z,7
2019-05-20T00:44:02.357Z,7
2019-05-20T00:45:02.506Z,7
2019-05-20T00:46:01.849Z,6
2019-05-20T00:47:01.941Z,12
2019-05-20T00:48:02.195Z,12
2019-05-20T00:49:02.465Z,12
2019-05-20T00:50:02.947Z,12
2019-05-20T00:51:01.970Z,12
2019-05-20T00:52:02.175Z,5
2019-05-20T00:53:02.348Z,7
2019-05-20T00:54:02.565Z,7
2019-05-20T00:55:01.782Z,7
2019-05-20T00:56:01.940Z,7
2019-05-20T00:57:02.124Z,7
2019-05-20T00:58:02.315Z,8
2019-05-20T00:59:02.653Z,8
2019-05-20T01:00:05.310Z,8
2019-05-20T01:01:02.141Z,8
2019-05-20T01:02:02.289Z,8
2019-05-20T01:03:02.485Z,8
2019-05-20T01:04:01.708Z,5
2019-05-20T01:05:02.046Z,7
2019-05-20T01:06:02.189Z,7
2019-05-20T01:07:02.336Z,7
2019-05-20T01:08:02.513Z,7
2019-05-20T01:09:01.877Z,7
2019-05-20T01:10:02.143Z,6
2019-05-20T01:11:02.365Z,10
2019-05-20T01:12:02.499Z,10
2019-05-20T01:13:01.759Z,10
2019-05-20T01:14:02.041Z,10
2019-05-20T01:15:02.302Z,10
2019-05-20T01:16:02.519Z,8
2019-05-20T01:17:02.292Z,5
2019-05-20T01:18:01.909Z,5
2019-05-20T01:19:02.109Z,5
2019-05-20T01:20:02.329Z,5
2019-05-20T01:21:02.617Z,5
2019-05-20T01:22:01.793Z,5
2019-05-20T01:23:02.025Z,8
2019-05-20T01:24:02.538Z,8
2019-05-20T01:25:01.716Z,8
2019-05-20T01:26:02.016Z,8
2019-05-20T01:27:02.217Z,8
2019-05-20T01:28:02.482Z,6
2019-05-20T01:29:01.669Z,9
2019-05-20T01:30:01.993Z,9
2019-05-20T01:31:02.251Z,9
2019-05-20T01:32:02.482Z,9
2019-05-20T01:33:14.616Z,9
2019-05-20T01:34:01.926Z,6
2019-05-20T01:35:02.329Z,9
2019-05-20T01:36:02.450Z,9
2019-05-20T01:37:01.640Z,9
2019-05-20T01:38:01.894Z,9
2019-05-20T01:39:02.159Z,9
2019-05-20T01:40:02.385Z,5
2019-05-20T01:41:02.551Z,8
2019-05-20T01:42:01.797Z,8
2019-05-20T01:43:02.016Z,8
2019-05-20T01:44:02.271Z,8
2019-05-20T01:45:02.489Z,8
2019-05-20T01:46:01.728Z,6
2019-05-20T01:47:01.959Z,10
2019-05-20T01:48:02.229Z,10
2019-05-20T01:49:02.354Z,10
2019-05-20T01:50:02.578Z,10
2019-05-20T01:51:01.877Z,10
2019-05-20T01:52:02.063Z,6
2019-05-20T01:53:02.301Z,9
2019-05-20T01:54:02.551Z,9
2019-05-20T01:55:01.838Z,9
2019-05-20T01:56:02.097Z,9
2019-05-20T01:57:02.382Z,9
2019-05-20T01:58:02.513Z,6
2019-05-20T01:59:01.694Z,7
2019-05-20T02:00:03.716Z,7
2019-05-20T02:01:02.598Z,7
2019-05-20T02:02:01.887Z,7
2019-05-20T02:03:02.086Z,7
2019-05-20T02:04:02.398Z,6
2019-05-20T02:05:02.580Z,9
2019-05-20T02:06:01.835Z,9
2019-05-20T02:07:02.063Z,9
2019-05-20T02:08:02.358Z,9
2019-05-20T02:09:02.531Z,9
2019-05-20T02:10:01.710Z,5
2019-05-20T02:11:01.944Z,6
2019-05-20T02:12:02.169Z,6
2019-05-20T02:13:02.378Z,6
2019-05-20T02:14:02.545Z,6
2019-05-20T02:15:01.988Z,6
2019-05-20T02:16:02.089Z,8
2019-05-20T02:17:03.201Z,11
2019-05-20T02:18:02.583Z,11
2019-05-20T02:19:01.851Z,11
2019-05-20T02:20:02.306Z,11
2019-05-20T02:21:02.252Z,11
2019-05-20T02:22:02.441Z,6
2019-05-20T02:23:02.611Z,9
2019-05-20T02:24:01.965Z,9
2019-05-20T02:25:02.273Z,9
2019-05-20T02:26:02.399Z,9
2019-05-20T02:27:02.561Z,9
2019-05-20T02:28:01.768Z,9
2019-05-20T02:29:01.990Z,10
2019-05-20T02:30:02.435Z,10
2019-05-20T02:31:02.406Z,10
2019-05-20T02:32:02.659Z,10
2019-05-20T02:33:01.890Z,10
2019-05-20T02:34:02.278Z,8
2019-05-20T02:35:02.445Z,7
2019-05-20T02:36:02.543Z,7
2019-05-20T02:37:01.743Z,7
2019-05-20T02:38:02.061Z,7
2019-05-20T02:39:01.867Z,7
2019-05-20T02:40:02.037Z,5
2019-05-20T02:41:02.288Z,8
2019-05-20T02:42:02.502Z,8
2019-05-20T02:43:01.665Z,8
2019-05-20T02:44:01.935Z,8
2019-05-20T02:45:02.256Z,8
2019-05-20T02:46:02.461Z,8
2019-05-20T02:47:01.666Z,9
2019-05-20T02:48:01.945Z,9
2019-05-20T02:49:02.239Z,9
2019-05-20T02:50:02.640Z,9
2019-05-20T02:51:01.785Z,9
2019-05-20T02:52:02.003Z,8
2019-05-20T02:53:02.323Z,9
2019-05-20T02:54:02.931Z,9
2019-05-20T02:55:01.737Z,9
2019-05-20T02:56:01.963Z,9
2019-05-20T02:57:02.121Z,9
2019-05-20T02:58:02.236Z,5
2019-05-20T02:59:02.553Z,7
2019-05-20T03:00:01.795Z,7
2019-05-20T03:01:01.879Z,7
2019-05-20T03:02:02.239Z,7
2019-05-20T03:03:02.318Z,7
2019-05-20T03:04:13.164Z,9
2019-05-20T03:05:01.945Z,9
2019-05-20T03:06:02.100Z,9
2019-05-20T03:07:02.393Z,9
2019-05-20T03:08:02.584Z,9
2019-05-20T03:09:01.826Z,9
2019-05-20T03:10:02.090Z,6
2019-05-20T03:11:02.282Z,7
2019-05-20T03:12:02.555Z,7
2019-05-20T03:13:01.849Z,7
2019-05-20T03:14:02.058Z,7
2019-05-20T03:15:02.368Z,7
2019-05-20T03:16:02.639Z,6
2019-05-20T03:17:01.862Z,7
2019-05-20T03:18:02.085Z,7
2019-05-20T03:19:02.387Z,7
2019-05-20T03:20:01.793Z,7
2019-05-20T03:21:02.035Z,7
2019-05-20T03:22:02.297Z,4
2019-05-20T03:23:02.565Z,6
2019-05-20T03:24:01.930Z,6
2019-05-20T03:25:02.169Z,6
2019-05-20T03:26:02.421Z,6
2019-05-20T03:27:02.619Z,6
2019-05-20T03:28:01.875Z,6
2019-05-20T03:29:02.129Z,8
2019-05-20T03:30:02.387Z,8
2019-05-20T03:31:02.516Z,8
2019-05-20T03:32:01.926Z,8
2019-05-20T03:33:02.030Z,8
2019-05-20T03:34:02.159Z,8
2019-05-20T03:35:02.682Z,6
2019-05-20T03:36:02.757Z,6
2019-05-20T03:37:01.942Z,6
2019-05-20T03:38:02.102Z,6
2019-05-20T03:39:02.361Z,6
2019-05-20T03:40:02.593Z,5
2019-05-20T03:41:01.817Z,6
2019-05-20T03:42:02.040Z,6
2019-05-20T03:43:02.214Z,6
2019-05-20T03:44:02.422Z,6
2019-05-20T03:45:02.669Z,6
2019-05-20T03:46:01.813Z,6
2019-05-20T03:47:01.995Z,6
2019-05-20T03:48:02.200Z,6
2019-05-20T03:49:02.502Z,6
2019-05-20T03:50:02.717Z,6
2019-05-20T03:51:01.924Z,6
2019-05-20T03:52:02.105Z,6
2019-05-20T03:53:02.306Z,9
2019-05-20T03:54:02.603Z,9
2019-05-20T03:55:01.819Z,9
2019-05-20T03:56:01.961Z,9
2019-05-20T03:57:02.175Z,9
2019-05-20T03:58:02.380Z,9
2019-05-20T03:59:02.608Z,8
2019-05-20T04:00:05.483Z,8
2019-05-20T04:01:02.407Z,8
2019-05-20T04:02:02.620Z,8
2019-05-20T04:03:01.829Z,8
2019-05-20T04:04:02.066Z,8
2019-05-20T04:05:03.807Z,8
2019-05-20T04:06:02.499Z,8
2019-05-20T04:07:01.740Z,8
2019-05-20T04:08:01.979Z,8
2019-05-20T04:09:02.261Z,8
2019-05-20T04:10:02.572Z,5
2019-05-20T04:11:01.849Z,7
2019-05-20T04:12:02.062Z,7
2019-05-20T04:13:02.292Z,7
2019-05-20T04:14:02.585Z,7
2019-05-20T04:15:01.732Z,7
2019-05-20T04:16:02.005Z,7
2019-05-20T04:17:02.201Z,8
2019-05-20T04:18:02.437Z,8
2019-05-20T04:19:01.716Z,8
2019-05-20T04:20:02.022Z,8
2019-05-20T04:21:02.194Z,8
2019-05-20T04:22:02.435Z,8
2019-05-20T04:23:02.622Z,8
2019-05-20T04:24:02.672Z,8
2019-05-20T04:25:02.074Z,8
2019-05-20T04:26:02.254Z,8
2019-05-20T04:27:02.497Z,8
2019-05-20T04:28:01.740Z,8
2019-05-20T04:29:02.110Z,5
2019-05-20T04:30:02.327Z,5
2019-05-20T04:31:02.524Z,5
2019-05-20T04:32:01.815Z,5
2019-05-20T04:33:02.033Z,5
2019-05-20T04:34:02.283Z,5
2019-05-20T04:35:23.479Z,5
2019-05-20T04:36:01.790Z,5
2019-05-20T04:37:01.950Z,5
2019-05-20T04:38:02.136Z,5
2019-05-20T04:39:02.348Z,5
2019-05-20T04:40:02.662Z,5
2019-05-20T04:41:01.737Z,6
2019-05-20T04:42:07.175Z,6
2019-05-20T04:43:02.261Z,6
2019-05-20T04:44:02.488Z,6
2019-05-20T04:45:01.904Z,6
2019-05-20T04:46:01.923Z,6
2019-05-20T04:47:02.118Z,8
2019-05-20T04:48:02.413Z,8
2019-05-20T04:49:02.578Z,8
2019-05-20T04:50:01.973Z,8
2019-05-20T04:51:02.185Z,8
2019-05-20T04:52:02.487Z,8
2019-05-20T04:53:01.765Z,6
2019-05-20T04:54:02.066Z,6
2019-05-20T04:55:02.313Z,6
2019-05-20T04:56:02.550Z,6
2019-05-20T04:57:01.650Z,6
2019-05-20T04:58:01.987Z,6
2019-05-20T04:59:02.063Z,6
2019-05-20T05:00:04.052Z,6
2019-05-20T05:01:01.891Z,6
2019-05-20T05:02:02.027Z,6
2019-05-20T05:03:02.359Z,6
2019-05-20T05:04:02.616Z,6
2019-05-20T05:05:01.921Z,8
2019-05-20T05:06:02.047Z,8
2019-05-20T05:07:02.410Z,8
2019-05-20T05:08:01.709Z,8
2019-05-20T05:09:02.202Z,8
2019-05-20T05:10:02.329Z,8
2019-05-20T05:11:02.455Z,5
2019-05-20T05:12:01.690Z,5
2019-05-20T05:13:01.887Z,5
2019-05-20T05:14:02.148Z,5
2019-05-20T05:15:08.152Z,5
2019-05-20T05:16:02.589Z,5
2019-05-20T05:17:01.854Z,6
2019-05-20T05:18:02.035Z,6
2019-05-20T05:19:02.227Z,6
2019-05-20T05:20:02.670Z,6
2019-05-20T05:21:01.770Z,6
2019-05-20T05:22:02.057Z,6
2019-05-20T05:23:02.160Z,5
2019-05-20T05:24:02.158Z,5
2019-05-20T05:25:05.998Z,5
2019-05-20T05:26:02.603Z,5
2019-05-20T05:27:01.829Z,5
2019-05-20T05:28:01.985Z,5
2019-05-20T05:29:02.261Z,8
2019-05-20T05:30:02.542Z,8
2019-05-20T05:31:01.700Z,8
2019-05-20T05:32:01.761Z,8
2019-05-20T05:33:02.075Z,8
2019-05-20T05:34:02.317Z,8
2019-05-20T05:35:02.554Z,5
2019-05-20T05:36:01.785Z,5
2019-05-20T05:37:02.018Z,5
2019-05-20T05:38:03.463Z,5
2019-05-20T05:39:02.440Z,5
2019-05-20T05:40:01.855Z,5
2019-05-20T05:41:01.979Z,5
2019-05-20T05:42:02.283Z,5
2019-05-20T05:43:02.470Z,5
2019-05-20T05:44:02.533Z,5
2019-05-20T05:45:01.859Z,5
2019-05-20T05:46:01.993Z,5
2019-05-20T05:47:02.123Z,6
2019-05-20T05:48:02.395Z,6
2019-05-20T05:49:02.583Z,6
2019-05-20T05:50:01.978Z,6
2019-05-20T05:51:02.075Z,6
2019-05-20T05:52:02.270Z,6
2019-05-20T05:53:02.490Z,6
2019-05-20T05:54:01.758Z,6
2019-05-20T05:55:01.937Z,6
2019-05-20T05:56:02.209Z,6
2019-05-20T05:57:02.388Z,6
2019-05-20T05:58:02.653Z,6
2019-05-20T05:59:01.897Z,6
2019-05-20T06:00:05.545Z,6
2019-05-20T06:01:02.415Z,6
2019-05-20T06:02:02.607Z,6
2019-05-20T06:03:01.941Z,6
2019-05-20T06:04:02.220Z,6
2019-05-20T06:05:02.446Z,5
2019-05-20T06:06:13.474Z,5
2019-05-20T06:07:01.943Z,5
2019-05-20T06:08:02.184Z,5
2019-05-20T06:09:02.401Z,5
2019-05-20T06:10:02.661Z,5
2019-05-20T06:11:01.840Z,8
2019-05-20T06:12:02.040Z,8
2019-05-20T06:13:02.493Z,8
2019-05-20T06:14:02.527Z,8
2019-05-20T06:15:01.974Z,8
2019-05-20T06:16:01.988Z,8
2019-05-20T06:17:02.168Z,5
2019-05-20T06:18:02.399Z,5
2019-05-20T06:19:01.681Z,5
2019-05-20T06:20:02.082Z,5
2019-05-20T06:21:02.214Z,5
2019-05-20T06:22:02.370Z,5
2019-05-20T06:23:02.655Z,6
2019-05-20T06:24:01.908Z,6
2019-05-20T06:25:02.286Z,6
2019-05-20T06:26:02.339Z,6
2019-05-20T06:27:02.610Z,6
2019-05-20T06:28:01.812Z,6
2019-05-20T06:29:03.502Z,3
2019-05-20T06:30:02.249Z,3
2019-05-20T06:31:02.551Z,3
2019-05-20T06:32:01.808Z,3
2019-05-20T06:33:02.095Z,3
2019-05-20T06:34:02.266Z,3
2019-05-20T06:35:02.503Z,6
2019-05-20T06:36:01.789Z,6
2019-05-20T06:37:02.076Z,6
2019-05-20T06:38:02.218Z,6
2019-05-20T06:39:02.379Z,6
2019-05-20T06:40:02.627Z,6
2019-05-20T06:41:01.720Z,6
2019-05-20T06:42:02.089Z,6
2019-05-20T06:43:02.186Z,6
2019-05-20T06:44:02.334Z,6
2019-05-20T06:45:01.951Z,6
2019-05-20T06:46:02.004Z,6
2019-05-20T06:47:02.380Z,4
2019-05-20T06:48:02.463Z,4
2019-05-20T06:49:02.692Z,4
2019-05-20T06:50:01.939Z,4
2019-05-20T06:51:02.154Z,4
2019-05-20T06:52:02.367Z,4
2019-05-20T06:53:02.577Z,6
2019-05-20T06:54:01.828Z,6
2019-05-20T06:55:02.145Z,6
2019-05-20T06:56:02.216Z,6
2019-05-20T06:57:02.464Z,6
2019-05-20T06:58:02.615Z,6
2019-05-20T06:59:02.074Z,6
2019-05-20T07:00:03.548Z,6
2019-05-20T07:01:02.347Z,6
2019-05-20T07:02:02.594Z,6
2019-05-20T07:03:01.750Z,6
2019-05-20T07:04:01.973Z,6
2019-05-20T07:05:02.291Z,6
2019-05-20T07:06:02.478Z,6
2019-05-20T07:07:01.746Z,6
2019-05-20T07:08:01.994Z,6
2019-05-20T07:09:02.145Z,6
2019-05-20T07:10:02.501Z,6
2019-05-20T07:11:01.639Z,6
2019-05-20T07:12:01.834Z,6
2019-05-20T07:13:02.028Z,6
2019-05-20T07:14:02.323Z,6
2019-05-20T07:15:03.200Z,6
2019-05-20T07:16:01.793Z,6
2019-05-20T07:17:02.088Z,6
2019-05-20T07:18:02.102Z,6
2019-05-20T07:19:02.568Z,6
2019-05-20T07:20:01.864Z,6
2019-05-20T07:21:02.031Z,6
2019-05-20T07:22:02.273Z,6
2019-05-20T07:23:02.498Z,6
2019-05-20T07:24:02.636Z,6
2019-05-20T07:25:02.599Z,6
2019-05-20T07:26:02.077Z,6
2019-05-20T07:27:02.418Z,6
2019-05-20T07:28:02.497Z,6
2019-05-20T07:29:01.711Z,6
2019-05-20T07:30:02.497Z,6
2019-05-20T07:31:01.675Z,6
2019-05-20T07:32:01.945Z,6
2019-05-20T07:33:02.234Z,6
2019-05-20T07:34:02.466Z,6
2019-05-20T07:35:01.687Z,2
2019-05-20T07:36:01.870Z,2
2019-05-20T07:37:04.497Z,2
2019-05-20T07:38:02.317Z,2
2019-05-20T07:39:02.528Z,2
2019-05-20T07:40:02.087Z,2
2019-05-20T07:41:01.923Z,8
2019-05-20T07:42:02.630Z,8
2019-05-20T07:43:01.925Z,8
2019-05-20T07:44:02.390Z,8
2019-05-20T07:45:02.888Z,8
2019-05-20T07:46:02.545Z,8
2019-05-20T07:47:01.816Z,5
2019-05-20T07:48:02.042Z,5
2019-05-20T07:49:02.717Z,5
2019-05-20T07:50:02.420Z,5
2019-05-20T07:51:02.614Z,5
2019-05-20T07:52:01.849Z,5
2019-05-20T07:53:02.017Z,5
2019-05-20T07:54:02.425Z,5
2019-05-20T07:55:02.522Z,5
2019-05-20T07:56:02.261Z,5
2019-05-20T07:57:02.098Z,5
2019-05-20T07:58:02.253Z,5
2019-05-20T07:59:02.494Z,4
2019-05-20T08:00:03.708Z,4
2019-05-20T08:01:02.647Z,4
2019-05-20T08:02:01.842Z,4
2019-05-20T08:03:02.045Z,4
2019-05-20T08:04:02.252Z,4
2019-05-20T08:05:03.592Z,5
2019-05-20T08:06:01.738Z,5
2019-05-20T08:07:48.609Z,5
2019-05-20T08:08:02.572Z,5
2019-05-20T08:09:02.550Z,5
2019-05-20T08:10:02.221Z,5
2019-05-20T08:11:02.049Z,5
2019-05-20T08:12:02.304Z,5
2019-05-20T08:13:02.498Z,5
2019-05-20T08:14:01.721Z,5
2019-05-20T08:15:01.893Z,5
2019-05-20T08:16:02.068Z,5
2019-05-20T08:17:02.379Z,5
2019-05-20T08:18:02.583Z,5
2019-05-20T08:19:01.662Z,5
2019-05-20T08:20:02.238Z,5
2019-05-20T08:21:02.147Z,5
2019-05-20T08:22:02.381Z,5
2019-05-20T08:23:02.813Z,3
2019-05-20T08:24:02.412Z,3
2019-05-20T08:25:02.136Z,3
2019-05-20T08:26:02.341Z,3
2019-05-20T08:27:02.581Z,3
2019-05-20T08:28:01.765Z,3
2019-05-20T08:29:02.007Z,6
2019-05-20T08:30:02.305Z,6
2019-05-20T08:31:02.417Z,6
2019-05-20T08:32:01.745Z,6
2019-05-20T08:33:01.779Z,6
2019-05-20T08:34:02.005Z,6
2019-05-20T08:35:02.314Z,4
2019-05-20T08:36:02.489Z,4
2019-05-20T08:37:05.210Z,4
2019-05-20T08:38:01.902Z,4
2019-05-20T08:39:02.116Z,4
2019-05-20T08:40:02.363Z,4
2019-05-20T08:41:02.674Z,6
2019-05-20T08:42:02.123Z,6
2019-05-20T08:43:02.020Z,6
2019-05-20T08:44:02.238Z,6
2019-05-20T08:45:03.876Z,6
2019-05-20T08:46:01.665Z,6
2019-05-20T08:47:02.405Z,8
2019-05-20T08:48:02.191Z,8
2019-05-20T08:49:02.398Z,8
2019-05-20T08:50:09.893Z,8
2019-05-20T08:51:01.891Z,8
2019-05-20T08:52:02.235Z,8
2019-05-20T08:53:02.414Z,8
2019-05-20T08:54:02.671Z,8
2019-05-20T08:55:02.962Z,8
2019-05-20T08:56:02.098Z,8
2019-05-20T08:57:02.412Z,8
2019-05-20T08:58:02.521Z,8
2019-05-20T08:59:01.671Z,6
2019-05-20T09:00:05.140Z,6
2019-05-20T09:01:02.398Z,6
2019-05-20T09:02:02.633Z,6
2019-05-20T09:03:01.771Z,6
2019-05-20T09:04:01.998Z,6
2019-05-20T09:05:02.277Z,4
2019-05-20T09:06:02.621Z,4
2019-05-20T09:07:01.966Z,4
2019-05-20T09:08:04.385Z,4
2019-05-20T09:09:02.158Z,4
2019-05-20T09:10:02.559Z,4
2019-05-20T09:11:02.663Z,5
2019-05-20T09:12:01.753Z,5
2019-05-20T09:13:02.010Z,5
2019-05-20T09:14:02.236Z,5
2019-05-20T09:15:02.510Z,5
2019-05-20T09:16:01.640Z,5
2019-05-20T09:17:01.881Z,6
2019-05-20T09:18:02.498Z,6
2019-05-20T09:19:02.565Z,6
2019-05-20T09:20:02.631Z,6
2019-05-20T09:21:02.018Z,6
2019-05-20T09:22:02.095Z,6
2019-05-20T09:23:03.310Z,5
2019-05-20T09:24:02.381Z,5
2019-05-20T09:25:03.186Z,5
2019-05-20T09:26:01.919Z,5
2019-05-20T09:27:02.064Z,5
2019-05-20T09:28:02.341Z,5
2019-05-20T09:29:02.531Z,5
2019-05-20T09:30:03.295Z,5
2019-05-20T09:31:02.117Z,5
2019-05-20T09:32:02.207Z,5
2019-05-20T09:33:02.366Z,5
2019-05-20T09:34:02.642Z,5
2019-05-20T09:35:02.022Z,6
2019-05-20T09:36:02.842Z,6
2019-05-20T09:37:02.406Z,6
2019-05-20T09:38:19.747Z,6
2019-05-20T09:39:01.990Z,6
2019-05-20T09:40:02.173Z,6
2019-05-20T09:41:02.396Z,6
2019-05-20T09:42:02.718Z,6
2019-05-20T09:43:01.857Z,6
2019-05-20T09:44:02.061Z,6
2019-05-20T09:45:03.654Z,6
2019-05-20T09:46:08.609Z,6
2019-05-20T09:47:01.879Z,6
2019-05-20T09:48:02.249Z,6
2019-05-20T09:49:02.362Z,6
2019-05-20T09:50:02.784Z,6
2019-05-20T09:51:02.057Z,6
2019-05-20T09:52:01.975Z,6
2019-05-20T09:53:08.020Z,6
2019-05-20T09:54:02.434Z,6
2019-05-20T09:55:02.169Z,6
2019-05-20T09:56:02.001Z,6
2019-05-20T09:57:02.177Z,6
2019-05-20T09:58:02.568Z,6
2019-05-20T09:59:01.778Z,3
2019-05-20T10:00:04.753Z,3
2019-05-20T10:01:02.476Z,3
2019-05-20T10:02:01.749Z,3
2019-05-20T10:03:02.400Z,3
2019-05-20T10:04:02.199Z,3
2019-05-20T10:05:03.092Z,5
2019-05-20T10:06:06.243Z,5
2019-05-20T10:07:01.881Z,5
2019-05-20T10:08:02.167Z,5
2019-05-20T10:09:02.285Z,5
2019-05-20T10:10:02.518Z,5
2019-05-20T10:11:01.807Z,5
2019-05-20T10:12:01.900Z,5
2019-05-20T10:13:02.241Z,5
2019-05-20T10:14:01.706Z,5
2019-05-20T10:15:02.062Z,5
2019-05-20T10:16:02.121Z,5
2019-05-20T10:17:03.202Z,5
2019-05-20T10:18:02.727Z,5
2019-05-20T10:19:01.722Z,5
2019-05-20T10:20:02.178Z,5
2019-05-20T10:21:02.275Z,5
2019-05-20T10:22:02.468Z,5
2019-05-20T10:23:02.694Z,6
2019-05-20T10:24:01.778Z,6
2019-05-20T10:25:02.248Z,6
2019-05-20T10:26:02.485Z,6
2019-05-20T10:27:02.626Z,6
2019-05-20T10:28:01.801Z,6
2019-05-20T10:29:02.068Z,5
2019-05-20T10:30:02.207Z,5
2019-05-20T10:31:02.539Z,5
2019-05-20T10:32:01.633Z,5
2019-05-20T10:33:01.922Z,5
2019-05-20T10:34:02.095Z,5
2019-05-20T10:35:02.428Z,5
2019-05-20T10:36:02.595Z,5
2019-05-20T10:37:01.712Z,5
2019-05-20T10:38:01.936Z,5
2019-05-20T10:39:02.147Z,5
2019-05-20T10:40:02.485Z,5
2019-05-20T10:41:02.706Z,6
2019-05-20T10:42:01.781Z,6
2019-05-20T10:43:01.971Z,6
2019-05-20T10:44:02.191Z,6
2019-05-20T10:45:03.284Z,6
2019-05-20T10:46:02.670Z,6
2019-05-20T10:47:01.840Z,7
2019-05-20T10:48:02.203Z,7
2019-05-20T10:49:02.389Z,7
2019-05-20T10:50:02.585Z,7
2019-05-20T10:51:01.742Z,7
2019-05-20T10:52:01.971Z,7
2019-05-20T10:53:02.238Z,5
2019-05-20T10:54:02.376Z,5
2019-05-20T10:55:02.605Z,5
2019-05-20T10:56:03.028Z,5
2019-05-20T10:57:01.986Z,5
2019-05-20T10:58:02.325Z,5
2019-05-20T10:59:02.498Z,6
2019-05-20T11:00:06.511Z,6
2019-05-20T11:01:04.176Z,6
2019-05-20T11:02:02.667Z,6
2019-05-20T11:03:01.998Z,6
2019-05-20T11:04:02.051Z,6
2019-05-20T11:05:02.256Z,5
2019-05-20T11:06:02.561Z,5
2019-05-20T11:07:01.790Z,5
2019-05-20T11:08:02.161Z,5
2019-05-20T11:09:14.809Z,5
2019-05-20T11:10:02.561Z,5
2019-05-20T11:11:01.765Z,7
2019-05-20T11:12:01.936Z,7
2019-05-20T11:13:02.373Z,7
2019-05-20T11:14:02.575Z,7
2019-05-20T11:15:03.212Z,7
2019-05-20T11:16:01.915Z,7
2019-05-20T11:17:02.162Z,3
2019-05-20T11:18:02.373Z,3
2019-05-20T11:19:02.700Z,3
2019-05-20T11:20:01.890Z,3
2019-05-20T11:21:02.157Z,3
2019-05-20T11:22:02.338Z,3
2019-05-20T11:23:02.525Z,5
2019-05-20T11:24:01.800Z,5
2019-05-20T11:25:02.105Z,5
2019-05-20T11:26:02.249Z,5
2019-05-20T11:27:02.539Z,5
2019-05-20T11:28:01.787Z,5
2019-05-20T11:29:01.930Z,5
2019-05-20T11:30:02.312Z,5
2019-05-20T11:31:02.454Z,5
2019-05-20T11:32:01.686Z,5
2019-05-20T11:33:01.798Z,5
2019-05-20T11:34:02.026Z,5
2019-05-20T11:35:02.873Z,9
2019-05-20T11:36:02.501Z,9
2019-05-20T11:37:02.026Z,9
2019-05-20T11:38:01.988Z,9
2019-05-20T11:39:02.397Z,9
2019-05-20T11:40:04.929Z,9
2019-05-20T11:41:01.731Z,9
2019-05-20T11:42:01.925Z,9
2019-05-20T11:43:02.172Z,9
2019-05-20T11:44:02.305Z,9
2019-05-20T11:45:02.655Z,9
2019-05-20T11:46:01.851Z,9
2019-05-20T11:47:02.029Z,7
2019-05-20T11:48:02.363Z,7
2019-05-20T11:49:02.535Z,7
2019-05-20T11:50:03.251Z,7
2019-05-20T11:51:01.995Z,7
2019-05-20T11:52:02.588Z,7
2019-05-20T11:53:02.585Z,5
2019-05-20T11:54:01.717Z,5
2019-05-20T11:55:01.999Z,5
2019-05-20T11:56:02.192Z,5
2019-05-20T11:57:02.483Z,5
2019-05-20T11:58:16.905Z,5
2019-05-20T11:59:01.937Z,6
2019-05-20T12:00:05.238Z,6
2019-05-20T12:01:02.086Z,6
2019-05-20T12:02:04.662Z,6
2019-05-20T12:03:02.674Z,6
2019-05-20T12:04:01.854Z,6
2019-05-20T12:05:02.496Z,7
2019-05-20T12:06:04.512Z,7
2019-05-20T12:07:02.426Z,7
2019-05-20T12:08:01.731Z,7
2019-05-20T12:09:01.919Z,7
2019-05-20T12:10:02.220Z,7
2019-05-20T12:11:02.392Z,5
2019-05-20T12:12:02.714Z,5
2019-05-20T12:13:01.895Z,5
2019-05-20T12:14:01.957Z,5
2019-05-20T12:15:04.776Z,5
2019-05-20T12:16:02.547Z,5
2019-05-20T12:17:01.740Z,7
2019-05-20T12:18:01.921Z,7
2019-05-20T12:19:02.119Z,7
2019-05-20T12:20:05.500Z,7
2019-05-20T12:21:01.692Z,7
2019-05-20T12:22:01.954Z,7
2019-05-20T12:23:02.191Z,7
2019-05-20T12:24:02.374Z,7
2019-05-20T12:25:02.656Z,7
2019-05-20T12:26:01.801Z,7
2019-05-20T12:27:02.096Z,7
2019-05-20T12:28:02.327Z,7
2019-05-20T12:29:02.617Z,9
2019-05-20T12:30:02.149Z,9
2019-05-20T12:31:02.922Z,9
2019-05-20T12:32:04.105Z,9
2019-05-20T12:33:20.010Z,9
2019-05-20T12:34:01.845Z,9
2019-05-20T12:35:02.286Z,10
2019-05-20T12:36:02.373Z,10
2019-05-20T12:37:02.491Z,10
2019-05-20T12:38:01.783Z,10
2019-05-20T12:39:01.877Z,10
2019-05-20T12:40:08.857Z,10
2019-05-20T12:41:02.266Z,6
2019-05-20T12:42:02.586Z,6
2019-05-20T12:43:01.852Z,6
2019-05-20T12:44:13.422Z,6
2019-05-20T12:45:02.541Z,6
2019-05-20T12:46:02.575Z,6
2019-05-20T12:47:01.886Z,7
2019-05-20T12:48:02.100Z,7
2019-05-20T12:49:02.683Z,7
2019-05-20T12:50:02.471Z,7
2019-05-20T12:51:01.787Z,7
2019-05-20T12:52:01.968Z,7
2019-05-20T12:53:02.559Z,6
2019-05-20T12:54:02.418Z,6
2019-05-20T12:55:09.983Z,6
2019-05-20T12:56:01.890Z,6
2019-05-20T12:57:02.176Z,6
2019-05-20T12:58:02.457Z,6
2019-05-20T12:59:02.669Z,10
2019-05-20T13:00:03.888Z,10
2019-05-20T13:01:01.706Z,10
2019-05-20T13:02:01.912Z,10
2019-05-20T13:03:02.125Z,10
2019-05-20T13:04:02.465Z,10
2019-05-20T13:05:02.667Z,10
2019-05-20T13:06:01.831Z,10
2019-05-20T13:07:02.067Z,10
2019-05-20T13:08:02.408Z,10
2019-05-20T13:09:02.607Z,10
2019-05-20T13:10:03.746Z,10
2019-05-20T13:11:02.102Z,9
2019-05-20T13:12:02.324Z,9
2019-05-20T13:13:02.562Z,9
2019-05-20T13:14:01.743Z,9
2019-05-20T13:15:02.073Z,9
2019-05-20T13:16:02.538Z,9
2019-05-20T13:17:02.424Z,9
2019-05-20T13:18:01.876Z,9
2019-05-20T13:19:01.827Z,9
2019-05-20T13:20:02.064Z,9
2019-05-20T13:21:02.915Z,9
2019-05-20T13:22:02.566Z,9
2019-05-20T13:23:06.121Z,10
2019-05-20T13:24:01.944Z,10
2019-05-20T13:25:02.204Z,10
2019-05-20T13:26:02.384Z,10
2019-05-20T13:27:02.645Z,10
2019-05-20T13:28:02.103Z,10
2019-05-20T13:29:02.383Z,7
2019-05-20T13:30:02.374Z,7
2019-05-20T13:31:02.589Z,7
2019-05-20T13:32:01.707Z,7
2019-05-20T13:33:01.944Z,7
2019-05-20T13:34:02.284Z,7
2019-05-20T13:35:02.479Z,10
2019-05-20T13:36:02.593Z,10
2019-05-20T13:37:01.935Z,10
2019-05-20T13:38:02.058Z,10
2019-05-20T13:39:02.270Z,10
2019-05-20T13:40:03.847Z,10
2019-05-20T13:41:01.765Z,7
2019-05-20T13:42:02.034Z,7
2019-05-20T13:43:02.197Z,7
2019-05-20T13:44:02.577Z,7
2019-05-20T13:45:01.801Z,7
2019-05-20T13:46:01.914Z,7
2019-05-20T13:47:02.145Z,9
2019-05-20T13:48:02.362Z,9
2019-05-20T13:49:02.638Z,9
2019-05-20T13:50:01.908Z,9
2019-05-20T13:51:02.153Z,9
2019-05-20T13:52:02.783Z,9
2019-05-20T13:53:02.791Z,14
2019-05-20T13:54:01.764Z,14
2019-05-20T13:55:02.043Z,14
2019-05-20T13:56:02.085Z,14
2019-05-20T13:57:02.358Z,14
2019-05-20T13:58:03.125Z,14
2019-05-20T13:59:01.874Z,10
2019-05-20T14:00:07.342Z,10
2019-05-20T14:01:02.152Z,10
2019-05-20T14:02:02.353Z,10
2019-05-20T14:03:02.606Z,10
2019-05-20T14:04:01.833Z,10
2019-05-20T14:05:02.243Z,13
2019-05-20T14:06:02.306Z,13
2019-05-20T14:07:02.611Z,13
2019-05-20T14:08:01.829Z,13
2019-05-20T14:09:02.166Z,13
2019-05-20T14:10:02.537Z,13
2019-05-20T14:11:05.439Z,9
2019-05-20T14:12:01.957Z,9
2019-05-20T14:13:02.552Z,9
2019-05-20T14:14:01.790Z,9
2019-05-20T14:15:02.082Z,9
2019-05-20T14:16:02.308Z,9
2019-05-20T14:17:02.535Z,11
2019-05-20T14:18:01.685Z,11
2019-05-20T14:19:01.940Z,11
2019-05-20T14:20:03.110Z,11
2019-05-20T14:21:02.492Z,11
2019-05-20T14:22:02.712Z,11
2019-05-20T14:23:01.865Z,14
2019-05-20T14:24:02.092Z,14
2019-05-20T14:25:02.314Z,14
2019-05-20T14:26:02.541Z,14
2019-05-20T14:27:01.693Z,14
2019-05-20T14:28:01.973Z,14
2019-05-20T14:29:02.236Z,11
2019-05-20T14:30:03.223Z,11
2019-05-20T14:31:06.586Z,11
2019-05-20T14:32:02.665Z,11
2019-05-20T14:33:02.620Z,11
2019-05-20T14:34:02.407Z,11
2019-05-20T14:35:02.991Z,10
2019-05-20T14:36:01.902Z,10
2019-05-20T14:37:02.142Z,10
2019-05-20T14:38:02.291Z,10
2019-05-20T14:39:02.545Z,10
2019-05-20T14:40:01.997Z,10
2019-05-20T14:41:02.027Z,7
2019-05-20T14:42:02.198Z,7
2019-05-20T14:43:02.380Z,7